Time;durP1;ratioP1;P1;durP2;ratioP2;P2;SDS_P1;SDS_P2;PMS_P1;PMS_P2;Temp;Humidity;BMP_temperature;BMP_pressure;BME280_temperature;BME280_humidity;BME280_pressure;Samples;Min_cycle;Max_cycle;Signal;HPM_P1;HPM_P2
2022/05/14 00:04:16;;;;;;;;;;;;;;;23.19;44.41;96127.88;10340366;28;1618;-59
2022/05/14 00:09:16;;;;;;;;;;;;;;;23.18;44.15;96124.44;10331707;28;1812;-61
2022/05/14 00:14:17;;;;;;;;;;;;;;;23.17;44.14;96114.13;10337099;28;1937;-57
2022/05/14 00:19:17;;;;;;;;;;;;;;;23.18;44.14;96115.72;10335555;28;2017;-60
2022/05/14 00:24:17;;;;;;;;;;;;;;;23.18;44.27;96111.22;10336244;28;2213;-58
2022/05/14 00:29:18;;;;;;;;;;;;;;;23.18;43.99;96105.16;10341310;28;2170;-58
2022/05/14 00:34:18;;;;;;;;;;;;;;;23.16;44.13;96108.03;10325953;28;1993;-58
2022/05/14 00:39:18;;;;;;;;;;;;;;;23.18;44.17;96108.59;10327895;28;1989;-62
2022/05/14 00:44:18;;;;;;;;;;;;;;;23.18;44.15;96105.16;10347528;28;2148;-56
2022/05/14 00:49:20;;;;;;;;;;;;;;;23.17;44.14;96109.63;10337106;28;1843;-58
2022/05/14 00:54:27;;;;;;;;;;;;;;;23.18;44.03;96110.44;10341135;28;1906;-61
2022/05/14 00:59:27;;;;;;;;;;;;;;;23.18;44.28;96107.78;10335390;28;1936;-58
2022/05/14 01:04:29;;;;;;;;;;;;;;;23.18;44.01;96110.44;10342931;28;2001;-55
2022/05/14 01:09:30;;;;;;;;;;;;;;;23.17;44.09;96100.91;10349082;28;1895;-57
2022/05/14 01:14:31;;;;;;;;;;;;;;;23.17;44.09;96098.25;10347252;28;1910;-60
2022/05/14 01:19:38;;;;;;;;;;;;;;;23.16;44.16;96097.47;10349810;28;1846;-58
2022/05/14 01:30:11;;;;;;;;;;;;;;;23.16;44.02;96084.25;10335951;28;1913;-57
2022/05/14 01:35:15;;;;;;;;;;;;;;;23.16;43.94;96080.84;10342584;28;1932;-59
2022/05/14 01:40:16;;;;;;;;;;;;;;;23.17;43.82;96085.03;10339851;28;1916;-58
2022/05/14 01:45:16;;;;;;;;;;;;;;;23.15;43.80;96079.25;10338483;28;1878;-56
2022/05/14 01:50:16;;;;;;;;;;;;;;;23.16;43.97;96076.31;10353413;28;1945;-58
2022/05/14 01:55:17;;;;;;;;;;;;;;;23.15;43.97;96085.34;10339362;28;1971;-58
2022/05/14 02:00:17;;;;;;;;;;;;;;;23.15;43.91;96084.53;10345068;28;1788;-62
2022/05/14 02:05:17;;;;;;;;;;;;;;;23.14;43.65;96082.97;10332486;28;1781;-54
2022/05/14 02:10:18;;;;;;;;;;;;;;;23.14;43.90;96082.97;10341217;28;1816;-61
2022/05/14 02:15:18;;;;;;;;;;;;;;;23.14;43.71;96085.63;10340858;28;1907;-58
2022/05/14 02:20:19;;;;;;;;;;;;;;;23.14;43.58;96085.63;10333801;28;1781;-60
2022/05/14 02:25:19;;;;;;;;;;;;;;;23.14;43.82;96082.97;10329733;28;1875;-57
2022/05/14 02:30:20;;;;;;;;;;;;;;;23.12;43.72;96074.53;10349780;28;1816;-56
2022/05/14 02:35:20;;;;;;;;;;;;;;;23.13;43.67;96071.59;10351105;28;1965;-60
2022/05/14 02:40:21;;;;;;;;;;;;;;;23.11;43.68;96068.47;10351168;28;1909;-61
2022/05/14 02:45:21;;;;;;;;;;;;;;;23.13;43.56;96066.31;10351822;28;1884;-62
2022/05/14 02:50:22;;;;;;;;;;;;;;;23.12;43.68;96066.59;10353335;28;1891;-57
2022/05/14 02:55:23;;;;;;;;;;;;;;;23.12;43.59;96070.00;10353057;28;1914;-59
2022/05/14 03:00:24;;;;;;;;;;;;;;;23.11;43.77;96063.16;10348418;28;2055;-58
2022/05/14 03:05:27;;;;;;;;;;;;;;;23.10;43.66;96072.16;10349302;28;1920;-62
2022/05/14 03:10:28;;;;;;;;;;;;;;;23.11;43.43;96078.25;10348465;28;1925;-60
2022/05/14 03:15:28;;;;;;;;;;;;;;;23.10;43.50;96074.78;10333634;28;1944;-60
2022/05/14 03:20:28;;;;;;;;;;;;;;;23.09;43.65;96073.25;10332903;28;2361;-60
2022/05/14 03:25:29;;;;;;;;;;;;;;;23.10;43.45;96077.44;10336679;28;1923;-60
2022/05/14 03:30:30;;;;;;;;;;;;;;;23.10;43.66;96087.25;10361802;28;1908;-62
2022/05/14 03:35:30;;;;;;;;;;;;;;;23.10;43.70;96092.53;10357305;28;1907;-63
2022/05/14 03:40:32;;;;;;;;;;;;;;;23.09;43.53;96096.25;10364037;28;2190;-59
2022/05/14 03:45:32;;;;;;;;;;;;;;;23.09;43.53;96096.25;10346122;28;1899;-61
2022/05/14 03:50:32;;;;;;;;;;;;;;;23.09;43.35;96099.69;10351342;28;2046;-59
2022/05/14 03:55:33;;;;;;;;;;;;;;;23.10;43.55;96095.19;10350847;28;1923;-58
2022/05/14 04:00:36;;;;;;;;;;;;;;;23.08;43.68;96090.16;10355094;28;1926;-59
2022/05/14 04:05:36;;;;;;;;;;;;;;;23.10;43.71;96103.13;10358719;28;1900;-59
2022/05/14 04:10:37;;;;;;;;;;;;;;;23.09;43.58;96098.88;10321824;28;1896;-62
2022/05/14 04:15:38;;;;;;;;;;;;;;;23.09;43.58;96101.53;10369056;28;1998;-59
2022/05/14 04:20:40;;;;;;;;;;;;;;;23.08;43.29;96102.63;10341531;28;1967;-57
2022/05/14 04:25:40;;;;;;;;;;;;;;;23.10;43.44;96108.41;10351185;28;1974;-59
2022/05/14 04:30:40;;;;;;;;;;;;;;;23.09;43.44;96106.81;10340059;28;1929;-59
2022/05/14 04:35:41;;;;;;;;;;;;;;;23.10;43.50;96116.34;10354380;28;2194;-60
2022/05/14 04:40:41;;;;;;;;;;;;;;;23.09;43.54;96112.09;10352290;28;2588;-56
2022/05/14 04:45:42;;;;;;;;;;;;;;;23.09;43.30;96117.41;10354125;28;2026;-57
2022/05/14 04:50:44;;;;;;;;;;;;;;;23.09;43.33;96122.69;10354764;28;1940;-59
2022/05/14 04:55:45;;;;;;;;;;;;;;;23.08;43.46;96115.84;10343101;28;1967;-59
2022/05/14 05:00:45;;;;;;;;;;;;;;;23.09;43.40;96117.41;10342483;28;1904;-58
2022/05/14 05:05:46;;;;;;;;;;;;;;;23.09;43.38;96117.41;10336175;28;1925;-61
2022/05/14 05:10:47;;;;;;;;;;;;;;;23.09;43.36;96128.75;10350278;28;2011;-59
2022/05/14 05:15:47;;;;;;;;;;;;;;;23.09;43.37;96125.31;10355521;28;1879;-59
2022/05/14 05:20:49;;;;;;;;;;;;;;;23.09;43.31;96127.97;10343377;28;1914;-61
2022/05/14 05:25:49;;;;;;;;;;;;;;;23.09;43.40;96120.84;10367900;28;2002;-58
2022/05/14 05:30:51;;;;;;;;;;;;;;;23.09;43.23;96120.84;10372904;28;1979;-60
2022/05/14 05:35:52;;;;;;;;;;;;;;;23.08;43.53;96126.41;10367954;28;1926;-61
2022/05/14 05:40:52;;;;;;;;;;;;;;;23.09;43.23;96130.63;10370285;28;2288;-62
2022/05/14 05:45:53;;;;;;;;;;;;;;;23.08;43.35;96140.41;10368591;28;1929;-59
2022/05/14 05:50:53;;;;;;;;;;;;;;;23.09;43.59;96143.84;10352593;28;2084;-62
2022/05/14 06:01:14;;;;;;;;;;;;;;;23.09;43.26;96143.84;10350875;28;1856;-59
2022/05/14 06:06:14;;;;;;;;;;;;;;;23.09;43.64;96139.34;10353609;28;1897;-57
2022/05/14 06:11:15;;;;;;;;;;;;;;;23.09;43.23;96141.19;10352119;28;1915;-61
2022/05/14 06:16:15;;;;;;;;;;;;;;;23.09;43.67;96143.84;10350677;28;1895;-59
2022/05/14 06:21:17;;;;;;;;;;;;;;;23.08;43.79;96148.34;10364031;28;1808;-60
2022/05/14 06:26:17;;;;;;;;;;;;;;;23.09;43.79;96143.84;10349902;28;1839;-60
2022/05/14 06:31:18;;;;;;;;;;;;;;;23.10;44.04;96151.47;10351120;28;1907;-56
2022/05/14 06:36:18;;;;;;;;;;;;;;;23.09;44.09;96144.63;10352973;28;1785;-60
2022/05/14 06:41:18;;;;;;;;;;;;;;;23.11;44.24;96147.78;10350072;28;1816;-59
2022/05/14 06:46:19;;;;;;;;;;;;;;;23.11;44.13;96142.50;10366467;28;2017;-59
2022/05/14 06:51:20;;;;;;;;;;;;;;;23.12;44.14;96146.69;10338499;28;1977;-57
2022/05/14 06:56:21;;;;;;;;;;;;;;;23.12;44.14;96149.34;10371876;28;1848;-60
2022/05/14 07:01:22;;;;;;;;;;;;;;;23.13;44.24;96147.50;10359339;28;1855;-61
2022/05/14 07:06:38;;;;;;;;;;;;;;;23.13;44.12;96155.44;10378236;28;1753;-59
2022/05/14 07:11:41;;;;;;;;;;;;;;;23.12;44.10;96151.22;10360165;28;2163;-57
2022/05/14 07:16:41;;;;;;;;;;;;;;;23.13;44.27;96147.50;10350878;28;1839;-60
2022/05/14 07:21:43;;;;;;;;;;;;;;;23.14;44.13;96146.44;10380347;28;1812;-57
2022/05/14 07:26:44;;;;;;;;;;;;;;;23.14;44.10;96146.44;10355693;28;1812;-59
2022/05/14 07:31:44;;;;;;;;;;;;;;;23.13;44.23;96144.84;10353462;28;1910;-58
2022/05/14 07:36:44;;;;;;;;;;;;;;;23.13;43.99;96144.84;10340111;28;1996;-57
2022/05/14 07:41:44;;;;;;;;;;;;;;;23.14;44.40;96141.91;10350603;28;1872;-57
2022/05/14 07:46:45;;;;;;;;;;;;;;;23.15;44.18;96142.72;10352899;28;1883;-58
2022/05/14 07:51:46;;;;;;;;;;;;;;;23.15;44.25;96142.72;10369260;28;1917;-58
2022/05/14 07:56:47;;;;;;;;;;;;;;;23.14;44.40;96136.63;10353933;28;1950;-61
2022/05/14 08:01:47;;;;;;;;;;;;;;;23.14;44.37;96135.88;10351314;28;1844;-59
2022/05/14 08:06:47;;;;;;;;;;;;;;;23.14;44.37;96138.50;10351165;28;2658;-57
2022/05/14 08:11:48;;;;;;;;;;;;;;;23.14;44.53;96135.88;10377420;28;1898;-58
2022/05/14 08:16:49;;;;;;;;;;;;;;;23.14;44.10;96135.88;10369759;28;1995;-58
2022/05/14 08:27:09;;;;;;;;;;;;;;;23.15;44.47;96142.72;10357417;28;1872;-59
2022/05/14 08:32:09;;;;;;;;;;;;;;;23.14;44.52;96134.00;10379721;28;1926;-59
2022/05/14 08:37:12;;;;;;;;;;;;;;;23.14;44.37;96131.34;10378697;28;2061;-58
2022/05/14 08:42:13;;;;;;;;;;;;;;;23.15;44.71;96132.13;10355653;28;1819;-59
2022/05/14 08:47:26;;;;;;;;;;;;;;;23.15;44.51;96122.34;10376791;28;1800;-59
2022/05/14 08:52:29;;;;;;;;;;;;;;;23.16;44.38;96128.44;10355183;28;1979;-57
2022/05/14 08:57:32;;;;;;;;;;;;;;;23.17;44.57;96130.00;10336017;28;1702;-58
2022/05/14 09:02:35;;;;;;;;;;;;;;;23.18;44.64;96126.31;10353234;28;1812;-56
2022/05/14 09:07:36;;;;;;;;;;;;;;;23.16;44.78;96128.44;10346313;28;1848;-57
2022/05/14 09:12:37;;;;;;;;;;;;;;;23.16;44.94;96125.78;10338360;28;2232;-61
2022/05/14 09:17:37;;;;;;;;;;;;;;;23.16;44.89;96123.16;10323251;28;1789;-59
2022/05/14 09:22:44;;;;;;;;;;;;;;;23.16;45.17;96117.88;10340444;28;1773;-60
2022/05/14 09:27:52;;;;;;;;;;;;;;;23.16;45.44;96123.91;10327057;28;1589;-57
2022/05/14 09:32:52;;;;;;;;;;;;;;;23.15;45.62;96121.56;10352636;28;2249;-55
2022/05/14 09:37:56;;;;;;;;;;;;;;;23.15;45.59;96124.22;10353094;28;2017;-60
2022/05/14 09:43:07;;;;;;;;;;;;;;;23.15;45.78;96122.34;10353051;28;1995;-57
2022/05/14 09:48:10;;;;;;;;;;;;;;;23.15;45.33;96119.72;10337144;28;1865;-61
2022/05/14 09:53:10;;;;;;;;;;;;;;;23.15;45.72;96121.56;10346157;28;1913;-59
2022/05/14 09:58:25;;;;;;;;;;;;;;;23.15;45.96;96110.97;10352174;28;1729;-61
2022/05/14 10:03:30;;;;;;;;;;;;;;;23.16;46.00;96117.88;10326582;28;1797;-58
2022/05/14 10:08:49;;;;;;;;;;;;;;;23.16;45.91;96112.56;10351396;28;1773;-60
2022/05/14 10:14:08;;;;;;;;;;;;;;;23.16;45.92;96107.28;10346005;28;1922;-61
2022/05/14 10:19:11;;;;;;;;;;;;;;;23.18;45.99;96100.66;10331141;28;1921;-59
2022/05/14 10:30:03;;;;;;;;;;;;;;;23.19;46.06;96098.78;10318550;28;1793;-60
2022/05/14 10:35:08;;;;;;;;;;;;;;;23.20;46.31;96092.44;10335172;28;1978;-60
2022/05/14 10:40:18;;;;;;;;;;;;;;;23.20;46.16;96087.94;10335747;28;1804;-62
2022/05/14 10:45:20;;;;;;;;;;;;;;;23.19;46.27;96086.34;10330730;28;1872;-62
2022/05/14 10:50:21;;;;;;;;;;;;;;;23.21;46.41;96088.69;10353132;28;1813;-57
2022/05/14 10:55:22;;;;;;;;;;;;;;;23.21;45.98;96078.13;10346047;28;2240;-60
2022/05/14 11:00:29;;;;;;;;;;;;;;;23.20;46.41;96081.84;10332775;28;1822;-56
2022/05/14 11:05:34;;;;;;;;;;;;;;;23.22;46.47;96071.78;10349135;28;1945;-57
2022/05/14 11:10:35;;;;;;;;;;;;;;;23.21;46.27;96070.97;10329748;28;1773;-59
2022/05/14 11:15:36;;;;;;;;;;;;;;;23.21;46.10;96062.25;10335195;28;2299;-58
2022/05/14 11:20:36;;;;;;;;;;;;;;;23.23;46.18;96070.69;10340119;28;1818;-60
2022/05/14 11:25:37;;;;;;;;;;;;;;;23.21;46.22;96056.97;10331644;28;1967;-62
2022/05/14 11:30:47;;;;;;;;;;;;;;;23.20;45.66;96058.84;10332216;28;1832;-58
2022/05/14 11:35:48;;;;;;;;;;;;;;;23.21;45.63;96062.25;10334521;28;1906;-58
2022/05/14 11:40:58;;;;;;;;;;;;;;;23.22;45.87;96058.56;10337517;28;1894;-61
2022/05/14 11:46:17;;;;;;;;;;;;;;;23.22;46.10;96053.25;10341804;28;2234;-62
2022/05/14 11:51:24;;;;;;;;;;;;;;;23.23;45.61;96049.53;10335842;28;1910;-61
2022/05/14 11:56:44;;;;;;;;;;;;;;;23.21;45.31;96049.81;10343873;28;1886;-59
2022/05/14 12:01:45;;;;;;;;;;;;;;;23.23;45.79;96033.66;10340935;28;1750;-61
2022/05/14 12:06:48;;;;;;;;;;;;;;;23.24;46.08;96035.25;10342818;28;1830;-60
2022/05/14 12:11:49;;;;;;;;;;;;;;;23.25;45.50;96036.81;10340756;28;1910;-56
2022/05/14 12:16:50;;;;;;;;;;;;;;;23.25;45.66;96042.09;10342879;28;1853;-56
2022/05/14 12:21:52;;;;;;;;;;;;;;;23.26;45.87;96033.09;10332941;28;1783;-61
2022/05/14 12:26:52;;;;;;;;;;;;;;;23.25;45.88;96026.22;10328722;28;1977;-57
2022/05/14 12:37:19;;;;;;;;;;;;;;;23.26;45.11;96019.88;10333523;28;1777;-60
2022/05/14 12:42:21;;;;;;;;;;;;;;;23.27;43.77;96021.44;10354409;28;1874;-56
2022/05/14 12:47:23;;;;;;;;;;;;;;;23.18;43.08;96007.28;10356420;28;1852;-57
2022/05/14 12:52:24;;;;;;;;;;;;;;;23.24;44.21;96004.31;10341565;28;2019;-62
2022/05/14 12:57:24;;;;;;;;;;;;;;;23.23;44.74;96001.94;10338804;28;1805;-61
2022/05/14 13:02:34;;;;;;;;;;;;;;;23.23;45.04;95997.44;10335424;28;1962;-62
2022/05/14 13:07:41;;;;;;;;;;;;;;;23.24;45.05;95987.66;10337641;28;2128;-63
2022/05/14 13:12:45;;;;;;;;;;;;;;;23.22;45.22;95981.84;10334135;28;1914;-60
2022/05/14 13:17:45;;;;;;;;;;;;;;;23.26;45.22;95980.22;10312167;28;1851;-62
2022/05/14 13:22:46;;;;;;;;;;;;;;;23.27;45.22;95977.28;10324748;28;1790;-63
2022/05/14 13:27:47;;;;;;;;;;;;;;;23.26;45.53;95975.72;10338356;28;1849;-59
2022/05/14 13:32:47;;;;;;;;;;;;;;;23.27;45.24;95965.91;10334771;28;1973;-61
2022/05/14 13:37:48;;;;;;;;;;;;;;;23.26;45.67;95965.13;10339599;28;1877;-62
2022/05/14 13:42:51;;;;;;;;;;;;;;;23.28;45.69;95951.63;10338167;28;1869;-62
2022/05/14 13:47:52;;;;;;;;;;;;;;;23.27;45.77;95950.81;10328876;28;1774;-60
2022/05/14 13:52:53;;;;;;;;;;;;;;;23.29;45.87;95950.53;10343416;28;1891;-60
2022/05/14 13:57:55;;;;;;;;;;;;;;;23.28;46.08;95941.03;10350500;28;1991;-59
2022/05/14 14:03:06;;;;;;;;;;;;;;;23.29;46.15;95942.59;10341142;28;1941;-60
2022/05/14 14:08:06;;;;;;;;;;;;;;;23.30;46.19;95941.53;10329855;28;1804;-62
2022/05/14 14:13:07;;;;;;;;;;;;;;;23.32;46.05;95934.13;10340738;28;1910;-62
2022/05/14 14:18:07;;;;;;;;;;;;;;;23.31;46.46;95927.22;10332683;28;2220;-62
2022/05/14 14:23:09;;;;;;;;;;;;;;;23.32;46.55;95929.63;10349468;28;1816;-59
2022/05/14 14:28:09;;;;;;;;;;;;;;;23.32;46.54;95926.19;10335831;28;1891;-59
2022/05/14 14:33:10;;;;;;;;;;;;;;;23.33;46.86;95933.03;10341159;28;1906;-62
2022/05/14 14:38:11;;;;;;;;;;;;;;;;;;10354245;28;1777;-62
2022/05/14 14:43:12;;;;;;;;;;;;;;;;;;10355308;28;1792;-62
2022/05/14 14:48:13;;;;;;;;;;;;;;;;;;10347867;28;1812;-63
2022/05/14 14:53:13;;;;;;;;;;;;;;;23.35;47.05;95912.38;10341943;28;1906;-59
2022/05/14 14:58:14;;;;;;;;;;;;;;;23.36;47.06;95908.69;10340099;28;1851;-62
2022/05/14 15:03:18;;;;;;;;;;;;;;;23.37;46.97;95915.53;10338953;28;1788;-60
2022/05/14 15:08:23;;;;;;;;;;;;;;;23.36;47.11;95921.91;10351834;28;1808;-61
2022/05/14 15:13:25;;;;;;;;;;;;;;;23.36;47.32;95913.97;10332292;28;1973;-59
2022/05/14 15:18:25;;;;;;;;;;;;;;;23.35;47.56;95907.09;10319992;28;1800;-60
2022/05/14 15:23:27;;;;;;;;;;;;;;;23.37;47.55;95910.25;10337329;28;1894;-58
2022/05/14 15:28:29;;;;;;;;;;;;;;;23.38;47.41;95898.59;10340281;28;1745;-63
2022/05/14 15:33:29;;;;;;;;;;;;;;;23.37;47.46;95902.31;10338686;28;1980;-60
2022/05/14 15:38:30;;;;;;;;;;;;;;;23.36;47.54;95903.38;10353598;28;1866;-63
2022/05/14 15:43:33;;;;;;;;;;;;;;;23.36;47.88;95901.53;10359186;28;1816;-58
2022/05/14 15:48:44;;;;;;;;;;;;;;;23.35;47.62;95905.25;10335528;28;1888;-57
2022/05/14 15:53:44;;;;;;;;;;;;;;;23.37;47.95;95899.66;10329065;28;1973;-60
2022/05/14 15:58:45;;;;;;;;;;;;;;;23.36;48.07;95900.75;10323828;28;1824;-62
2022/05/14 16:03:45;;;;;;;;;;;;;;;23.36;47.68;95895.47;10335774;28;1785;-59
2022/05/14 16:08:46;;;;;;;;;;;;;;;23.36;47.93;95893.59;10340813;28;1824;-58
2022/05/14 16:19:05;;;;;;;;;;;;;;;23.36;48.12;95884.88;10346731;28;1845;-61
2022/05/14 16:24:06;;;;;;;;;;;;;;;23.35;47.67;95884.06;10336828;28;1867;-62
2022/05/14 16:29:06;;;;;;;;;;;;;;;;;;10336774;28;1859;-60
2022/05/14 16:34:07;;;;;;;;;;;;;;;23.35;48.08;95885.94;10352506;28;1982;-59
2022/05/14 16:39:07;;;;;;;;;;;;;;;;;;10343162;28;1832;-60
2022/05/14 16:44:08;;;;;;;;;;;;;;;23.34;47.93;95894.97;10340674;28;2014;-62
2022/05/14 16:49:08;;;;;;;;;;;;;;;23.35;48.03;95888.56;10335972;28;1812;-59
2022/05/14 16:54:09;;;;;;;;;;;;;;;23.35;48.21;95899.16;10358624;28;1976;-60
2022/05/14 16:59:09;;;;;;;;;;;;;;;;;;10338025;28;1548;-57
2022/05/14 17:04:09;;;;;;;;;;;;;;;23.33;48.19;95901.31;10338379;28;1733;-62
2022/05/14 17:09:10;;;;;;;;;;;;;;;23.33;48.30;95896.00;10353702;28;1788;-61
2022/05/14 17:14:11;;;;;;;;;;;;;;;23.34;48.30;95900.25;10354555;28;1910;-62
2022/05/14 17:19:11;;;;;;;;;;;;;;;23.32;48.20;95899.75;10347753;28;1796;-61
2022/05/14 17:24:11;;;;;;;;;;;;;;;23.32;48.24;95900.53;10347542;28;1795;-63
2022/05/14 17:29:12;;;;;;;;;;;;;;;23.33;48.13;95901.31;10356597;28;1624;-63
2022/05/14 17:34:13;;;;;;;;;;;;;;;23.32;48.02;95905.84;10350190;28;2216;-62
2022/05/14 17:44:33;;;;;;;;;;;;;;;23.31;48.17;95909.50;10353547;28;1859;-60
2022/05/14 17:49:34;;;;;;;;;;;;;;;23.32;48.28;95907.69;10336568;28;1738;-59
2022/05/14 17:54:36;;;;;;;;;;;;;;;23.31;48.42;95903.41;10338992;28;1970;-57
2022/05/14 17:59:37;;;;;;;;;;;;;;;23.31;48.11;95908.72;10321072;28;1785;-62
2022/05/14 18:04:37;;;;;;;;;;;;;;;23.31;48.16;95914.00;10320677;28;1808;-61
2022/05/14 18:09:38;;;;;;;;;;;;;;;23.31;48.13;95916.66;10349856;28;1863;-62
2022/05/14 18:14:38;;;;;;;;;;;;;;;23.30;48.28;95909.81;10336471;28;1910;-60
2022/05/14 18:19:38;;;;;;;;;;;;;;;23.30;48.31;95917.72;10327761;28;1757;-61
2022/05/14 18:24:39;;;;;;;;;;;;;;;23.30;47.90;95920.38;10330522;28;1838;-57
2022/05/14 18:29:41;;;;;;;;;;;;;;;23.30;47.94;95925.66;10327676;28;1768;-59
2022/05/14 18:34:41;;;;;;;;;;;;;;;23.29;47.87;95926.72;10348761;28;1924;-60
2022/05/14 18:39:43;;;;;;;;;;;;;;;23.30;48.01;95933.59;10352858;28;1443;-62
2022/05/14 18:44:44;;;;;;;;;;;;;;;23.29;47.81;95932.00;10317299;28;1891;-63
2022/05/14 18:49:45;;;;;;;;;;;;;;;23.28;48.02;95925.16;10322643;28;2057;-60
2022/05/14 18:54:46;;;;;;;;;;;;;;;23.28;47.82;95933.91;10348929;28;1906;-59
2022/05/14 18:59:46;;;;;;;;;;;;;;;23.28;47.81;95943.69;10332234;28;1889;-61
2022/05/14 19:10:06;;;;;;;;;;;;;;;23.28;47.57;95956.91;10332037;28;1863;-61
2022/05/14 19:15:06;;;;;;;;;;;;;;;23.27;47.80;95953.47;10343021;28;1964;-59
2022/05/14 19:20:08;;;;;;;;;;;;;;;23.26;47.69;95951.91;10329579;28;1935;-61
2022/05/14 19:25:09;;;;;;;;;;;;;;;23.28;47.67;95962.19;10333600;28;2209;-62
2022/05/14 19:30:10;;;;;;;;;;;;;;;23.28;47.57;95972.78;10342903;28;2126;-63
2022/05/14 19:35:11;;;;;;;;;;;;;;;23.25;47.67;95979.41;10345324;28;1910;-60
2022/05/14 19:40:20;;;;;;;;;;;;;;;23.27;47.05;95987.06;10359676;28;2149;-60
2022/05/14 19:45:22;;;;;;;;;;;;;;;23.28;46.21;95993.94;10351962;28;2012;-61
2022/05/14 19:50:23;;;;;;;;;;;;;;;23.27;46.33;95990.50;10322386;28;2376;-64
2022/05/14 19:55:23;;;;;;;;;;;;;;;23.28;46.58;95989.44;10329614;28;2238;-61
2022/05/14 20:00:23;;;;;;;;;;;;;;;23.24;47.03;95988.44;10346388;28;2238;-63
2022/05/14 20:05:24;;;;;;;;;;;;;;;23.25;46.84;95997.94;10336353;28;2163;-63
2022/05/14 20:10:24;;;;;;;;;;;;;;;23.25;47.18;95994.50;10357984;28;1808;-64
2022/05/14 20:15:25;;;;;;;;;;;;;;;23.26;47.06;95990.78;10338545;28;1910;-65
2022/05/14 20:25:45;;;;;;;;;;;;;;;23.26;46.92;96001.38;10341346;28;1804;-61
2022/05/14 20:30:45;;;;;;;;;;;;;;;23.26;46.90;95993.44;10335546;28;2399;-63
2022/05/14 20:35:45;;;;;;;;;;;;;;;23.25;47.16;95994.50;10355685;28;1966;-62
2022/05/14 20:40:46;;;;;;;;;;;;;;;23.26;47.06;96001.38;10333270;28;1861;-62
2022/05/14 20:45:46;;;;;;;;;;;;;;;23.26;47.05;96006.66;10337440;28;2154;-62
2022/05/14 20:50:47;;;;;;;;;;;;;;;23.25;46.78;95999.78;10343455;28;1512;-62
2022/05/14 20:55:47;;;;;;;;;;;;;;;23.24;46.89;95996.38;10338535;28;1918;-63
2022/05/14 21:00:48;;;;;;;;;;;;;;;23.24;47.05;95998.22;10339000;28;2040;-63
2022/05/14 21:05:49;;;;;;;;;;;;;;;23.24;47.12;96003.50;10343912;28;1936;-59
2022/05/14 21:10:49;;;;;;;;;;;;;;;23.23;47.12;96002.72;10348411;28;1827;-63
2022/05/14 21:15:49;;;;;;;;;;;;;;;23.23;46.96;95989.50;10349843;28;1898;-63
2022/05/14 21:20:50;;;;;;;;;;;;;;;23.23;46.72;95997.44;10333218;28;1893;-61
2022/05/14 21:25:50;;;;;;;;;;;;;;;23.23;46.78;95994.78;10356918;28;2188;-60
2022/05/14 21:30:52;;;;;;;;;;;;;;;23.23;46.63;95996.63;10349087;28;1908;-60
2022/05/14 21:41:12;;;;;;;;;;;;;;;23.23;46.45;95991.34;10356623;28;1773;-59
2022/05/14 21:46:12;;;;;;;;;;;;;;;23.23;46.80;95983.41;10345356;28;1926;-63
2022/05/14 21:51:12;;;;;;;;;;;;;;;23.22;46.26;95982.66;10349619;28;1924;-62
2022/05/14 21:56:13;;;;;;;;;;;;;;;23.21;46.66;95982.91;10333261;28;2036;-63
2022/05/14 22:01:18;;;;;;;;;;;;;;;23.22;46.30;95985.28;10337999;28;1756;-59
2022/05/14 22:06:19;;;;;;;;;;;;;;;23.21;46.04;95981.06;10335194;28;1896;-62
2022/05/14 22:11:19;;;;;;;;;;;;;;;23.21;46.37;95983.72;10344426;28;1919;-63
2022/05/14 22:16:20;;;;;;;;;;;;;;;23.21;46.12;95978.41;10354146;28;1906;-62
2022/05/14 22:21:20;;;;;;;;;;;;;;;23.22;45.98;95984.50;10350173;28;1887;-61
2022/05/14 22:26:20;;;;;;;;;;;;;;;23.21;46.04;95988.19;10356052;28;1827;-58
2022/05/14 22:31:21;;;;;;;;;;;;;;;23.20;46.10;95989.28;10350387;28;1784;-59
2022/05/14 22:36:22;;;;;;;;;;;;;;;23.19;46.18;95980.56;10350218;28;1898;-59
2022/05/14 22:41:25;;;;;;;;;;;;;;;23.21;46.04;95983.72;10356496;28;1777;-57
2022/05/14 22:46:26;;;;;;;;;;;;;;;23.20;45.79;95981.34;10348411;28;1851;-61
2022/05/14 22:51:27;;;;;;;;;;;;;;;23.20;45.55;95970.78;10344135;28;1902;-60
2022/05/14 22:56:28;;;;;;;;;;;;;;;23.21;45.71;95967.84;10330093;28;1749;-59
2022/05/14 23:01:29;;;;;;;;;;;;;;;23.20;45.60;95965.47;10333095;28;1804;-60
2022/05/14 23:06:29;;;;;;;;;;;;;;;23.21;45.64;95967.03;10333267;28;1813;-62
2022/05/14 23:11:30;;;;;;;;;;;;;;;23.21;45.68;95961.75;10348692;28;1977;-60
2022/05/14 23:16:30;;;;;;;;;;;;;;;23.19;45.47;95964.69;10326834;28;1923;-62
2022/05/14 23:21:31;;;;;;;;;;;;;;;23.19;45.63;95959.41;10346114;28;1804;-62
2022/05/14 23:26:31;;;;;;;;;;;;;;;23.20;45.44;95952.25;10343814;28;1922;-62
2022/05/14 23:31:32;;;;;;;;;;;;;;;23.20;45.60;95944.31;10350341;28;1909;-60
2022/05/14 23:36:33;;;;;;;;;;;;;;;23.20;45.47;95945.13;10347205;28;1863;-58
2022/05/14 23:41:34;;;;;;;;;;;;;;;23.20;45.36;95939.03;10340376;28;1746;-58
2022/05/14 23:46:35;;;;;;;;;;;;;;;23.20;45.35;95941.69;10343219;28;2056;-58
2022/05/14 23:51:35;;;;;;;;;;;;;;;23.19;45.25;95948.81;10357079;28;2009;-60
2022/05/14 23:56:35;;;;;;;;;;;;;;;23.20;45.29;95941.69;10351559;28;1800;-59
